sensor_id;sensor_type;location;lat;lon;timestamp;pressure;altitude;pressure_sealevel;temperature;humidity
66627;BME280;53498;50.422;14.912;2023-02-15T00:01:46;100735.19;;;2.73;96.75
66627;BME280;53498;50.422;14.912;2023-02-15T00:04:13;100731.22;;;2.64;97.32
66627;BME280;53498;50.422;14.912;2023-02-15T00:06:39;100737.50;;;2.54;97.61
66627;BME280;53498;50.422;14.912;2023-02-15T00:09:05;100739.63;;;2.61;98.22
66627;BME280;53498;50.422;14.912;2023-02-15T00:11:31;100730.75;;;2.71;96.75
66627;BME280;53498;50.422;14.912;2023-02-15T00:14:07;100730.94;;;2.59;95.80
66627;BME280;53498;50.422;14.912;2023-02-15T00:16:34;100732.16;;;2.66;96.40
66627;BME280;53498;50.422;14.912;2023-02-15T00:18:59;100719.25;;;2.64;96.86
66627;BME280;53498;50.422;14.912;2023-02-15T00:21:32;100721.13;;;2.67;97.29
66627;BME280;53498;50.422;14.912;2023-02-15T00:23:59;100722.25;;;2.72;96.88
66627;BME280;53498;50.422;14.912;2023-02-15T00:26:26;100723.22;;;2.74;96.57
66627;BME280;53498;50.422;14.912;2023-02-15T00:28:52;100723.91;;;2.57;96.77
66627;BME280;53498;50.422;14.912;2023-02-15T00:31:18;100715.63;;;2.61;97.08
66627;BME280;53498;50.422;14.912;2023-02-15T00:33:43;100715.25;;;2.54;97.59
66627;BME280;53498;50.422;14.912;2023-02-15T00:36:10;100717.09;;;2.42;97.76
66627;BME280;53498;50.422;14.912;2023-02-15T00:38:36;100715.50;;;2.44;97.80
66627;BME280;53498;50.422;14.912;2023-02-15T00:41:04;100710.47;;;2.46;98.03
66627;BME280;53498;50.422;14.912;2023-02-15T00:43:31;100702.41;;;2.54;97.79
66627;BME280;53498;50.422;14.912;2023-02-15T00:45:57;100702.06;;;2.48;97.34
66627;BME280;53498;50.422;14.912;2023-02-15T00:48:23;100701.00;;;2.45;97.95
66627;BME280;53498;50.422;14.912;2023-02-15T00:50:54;100700.88;;;2.28;97.40
66627;BME280;53498;50.422;14.912;2023-02-15T00:53:20;100705.47;;;2.34;97.75
66627;BME280;53498;50.422;14.912;2023-02-15T00:55:46;100709.94;;;2.51;97.73
66627;BME280;53498;50.422;14.912;2023-02-15T00:58:13;100706.72;;;2.41;97.24
66627;BME280;53498;50.422;14.912;2023-02-15T01:00:46;100703.03;;;2.36;97.45
66627;BME280;53498;50.422;14.912;2023-02-15T01:03:14;100703.56;;;2.45;97.96
66627;BME280;53498;50.422;14.912;2023-02-15T01:05:40;100706.38;;;2.49;98.83
66627;BME280;53498;50.422;14.912;2023-02-15T01:08:06;100704.78;;;2.37;97.86
66627;BME280;53498;50.422;14.912;2023-02-15T01:10:33;100696.47;;;2.26;98.60
66627;BME280;53498;50.422;14.912;2023-02-15T01:12:59;100694.97;;;2.29;98.56
66627;BME280;53498;50.422;14.912;2023-02-15T01:15:24;100683.44;;;2.23;97.99
66627;BME280;53498;50.422;14.912;2023-02-15T01:17:50;100687.31;;;2.31;97.67
66627;BME280;53498;50.422;14.912;2023-02-15T01:20:20;100682.00;;;2.13;98.06
66627;BME280;53498;50.422;14.912;2023-02-15T01:22:46;100683.16;;;2.18;98.37
66627;BME280;53498;50.422;14.912;2023-02-15T01:25:19;100684.03;;;2.19;98.77
66627;BME280;53498;50.422;14.912;2023-02-15T01:27:45;100685.47;;;2.28;97.14
66627;BME280;53498;50.422;14.912;2023-02-15T01:30:12;100682.44;;;2.21;97.23
66627;BME280;53498;50.422;14.912;2023-02-15T01:32:38;100683.63;;;2.26;97.49
66627;BME280;53498;50.422;14.912;2023-02-15T01:35:04;100687.31;;;2.31;97.21
66627;BME280;53498;50.422;14.912;2023-02-15T01:37:31;100691.06;;;2.36;98.60
66627;BME280;53498;50.422;14.912;2023-02-15T01:39:57;100679.47;;;2.43;98.15
66627;BME280;53498;50.422;14.912;2023-02-15T01:42:23;100678.47;;;2.41;98.13
66627;BME280;53498;50.422;14.912;2023-02-15T01:44:54;100671.84;;;2.44;97.80
66627;BME280;53498;50.422;14.912;2023-02-15T01:50:23;100663.16;;;2.27;97.74
66627;BME280;53498;50.422;14.912;2023-02-15T01:53:20;100658.19;;;2.16;97.77
66627;BME280;53498;50.422;14.912;2023-02-15T01:55:51;100655.16;;;2.08;98.20
66627;BME280;53498;50.422;14.912;2023-02-15T01:58:18;100658.00;;;2.13;98.07
66627;BME280;53498;50.422;14.912;2023-02-15T02:00:45;100653.66;;;2.12;97.69
66627;BME280;53498;50.422;14.912;2023-02-15T02:03:11;100652.72;;;2.24;98.07
66627;BME280;53498;50.422;14.912;2023-02-15T02:05:37;100646.88;;;2.27;97.34
66627;BME280;53498;50.422;14.912;2023-02-15T02:08:04;100646.59;;;2.22;97.07
66627;BME280;53498;50.422;14.912;2023-02-15T02:10:29;100649.06;;;2.21;96.89
66627;BME280;53498;50.422;14.912;2023-02-15T02:12:59;100651.66;;;2.21;97.01
66627;BME280;53498;50.422;14.912;2023-02-15T02:15:39;100653.78;;;2.13;97.20
66627;BME280;53498;50.422;14.912;2023-02-15T02:20:52;100642.59;;;2.13;97.79
66627;BME280;53498;50.422;14.912;2023-02-15T02:37:16;100623.34;;;1.91;97.34
66627;BME280;53498;50.422;14.912;2023-02-15T02:39:54;100626.72;;;1.90;97.46
66627;BME280;53498;50.422;14.912;2023-02-15T02:42:43;100628.09;;;1.98;98.90
66627;BME280;53498;50.422;14.912;2023-02-15T02:45:16;100625.25;;;2.08;97.02
66627;BME280;53498;50.422;14.912;2023-02-15T02:48:02;100624.63;;;2.13;98.02
66627;BME280;53498;50.422;14.912;2023-02-15T02:50:29;100630.38;;;2.08;97.94
66627;BME280;53498;50.422;14.912;2023-02-15T02:52:57;100635.66;;;1.97;97.19
66627;BME280;53498;50.422;14.912;2023-02-15T02:55:30;100634.09;;;1.99;97.90
66627;BME280;53498;50.422;14.912;2023-02-15T02:58:09;100629.75;;;1.98;97.55
66627;BME280;53498;50.422;14.912;2023-02-15T03:00:40;100633.41;;;2.01;97.79
66627;BME280;53498;50.422;14.912;2023-02-15T03:03:13;100630.19;;;2.05;97.63
66627;BME280;53498;50.422;14.912;2023-02-15T03:05:44;100629.13;;;2.02;98.08
66627;BME280;53498;50.422;14.912;2023-02-15T03:08:14;100628.66;;;1.94;97.62
66627;BME280;53498;50.422;14.912;2023-02-15T03:10:48;100630.91;;;1.88;97.88
66627;BME280;53498;50.422;14.912;2023-02-15T03:13:14;100631.22;;;1.79;97.77
66627;BME280;53498;50.422;14.912;2023-02-15T03:15:41;100622.59;;;1.92;98.45
66627;BME280;53498;50.422;14.912;2023-02-15T03:18:35;100622.59;;;1.92;98.04
66627;BME280;53498;50.422;14.912;2023-02-15T03:21:03;100624.69;;;1.84;97.73
66627;BME280;53498;50.422;14.912;2023-02-15T03:23:32;100620.28;;;1.82;98.36
66627;BME280;53498;50.422;14.912;2023-02-15T03:26:03;100614.84;;;1.77;99.02
66627;BME280;53498;50.422;14.912;2023-02-15T03:28:43;100615.41;;;1.87;98.93
66627;BME280;53498;50.422;14.912;2023-02-15T03:31:13;100609.91;;;1.80;98.59
66627;BME280;53498;50.422;14.912;2023-02-15T03:33:52;100606.47;;;1.80;98.28
66627;BME280;53498;50.422;14.912;2023-02-15T03:36:22;100599.13;;;1.86;98.16
66627;BME280;53498;50.422;14.912;2023-02-15T03:38:57;100595.50;;;1.82;98.24
66627;BME280;53498;50.422;14.912;2023-02-15T03:41:29;100595.50;;;1.82;97.77
66627;BME280;53498;50.422;14.912;2023-02-15T03:44:04;100596.56;;;1.86;97.87
66627;BME280;53498;50.422;14.912;2023-02-15T03:46:47;100598.41;;;1.74;97.40
66627;BME280;53498;50.422;14.912;2023-02-15T03:49:22;100596.00;;;1.77;98.06
66627;BME280;53498;50.422;14.912;2023-02-15T03:51:53;100602.91;;;1.78;97.88
66627;BME280;53498;50.422;14.912;2023-02-15T03:54:24;100598.22;;;1.71;97.45
66627;BME280;53498;50.422;14.912;2023-02-15T03:57:29;100601.88;;;1.89;98.21
66627;BME280;53498;50.422;14.912;2023-02-15T04:00:18;100595.31;;;1.94;97.29
66627;BME280;53498;50.422;14.912;2023-02-15T04:05:42;100589.38;;;1.80;97.76
66627;BME280;53498;50.422;14.912;2023-02-15T04:08:08;100592.56;;;1.76;97.91
66627;BME280;53498;50.422;14.912;2023-02-15T04:10:37;100590.78;;;1.75;97.03
66627;BME280;53498;50.422;14.912;2023-02-15T04:13:22;100586.75;;;1.79;97.34
66627;BME280;53498;50.422;14.912;2023-02-15T04:15:48;100589.13;;;1.76;97.77
66627;BME280;53498;50.422;14.912;2023-02-15T04:18:31;100597.75;;;1.63;97.98
66627;BME280;53498;50.422;14.912;2023-02-15T04:21:15;100588.19;;;1.60;97.76
66627;BME280;53498;50.422;14.912;2023-02-15T04:23:59;100589.97;;;1.61;98.29
66627;BME280;53498;50.422;14.912;2023-02-15T04:26:44;100594.28;;;1.62;98.28
66627;BME280;53498;50.422;14.912;2023-02-15T04:29:09;100592.63;;;1.63;98.44
66627;BME280;53498;50.422;14.912;2023-02-15T04:31:35;100588.16;;;1.46;99.03
66627;BME280;53498;50.422;14.912;2023-02-15T04:34:06;100591.84;;;1.36;99.57
66627;BME280;53498;50.422;14.912;2023-02-15T04:36:32;100591.78;;;1.49;99.06
66627;BME280;53498;50.422;14.912;2023-02-15T04:38:57;100588.59;;;1.53;99.02
66627;BME280;53498;50.422;14.912;2023-02-15T04:41:23;100596.06;;;1.64;99.13
66627;BME280;53498;50.422;14.912;2023-02-15T04:43:48;100593.47;;;1.49;99.11
66627;BME280;53498;50.422;14.912;2023-02-15T04:46:14;100588.41;;;1.50;99.38
66627;BME280;53498;50.422;14.912;2023-02-15T04:48:39;100587.97;;;1.43;99.74
66627;BME280;53498;50.422;14.912;2023-02-15T04:51:06;100591.78;;;1.49;99.98
66627;BME280;53498;50.422;14.912;2023-02-15T04:53:32;100583.63;;;1.42;100.00
66627;BME280;53498;50.422;14.912;2023-02-15T04:55:57;100585.47;;;1.44;100.00
66627;BME280;53498;50.422;14.912;2023-02-15T04:58:23;100579.81;;;1.35;99.75
66627;BME280;53498;50.422;14.912;2023-02-15T05:00:49;100582.66;;;1.39;100.00
66627;BME280;53498;50.422;14.912;2023-02-15T05:03:14;100579.81;;;1.35;100.00
66627;BME280;53498;50.422;14.912;2023-02-15T05:05:40;100581.47;;;1.34;100.00
66627;BME280;53498;50.422;14.912;2023-02-15T05:08:05;100575.66;;;1.37;100.00
66627;BME280;53498;50.422;14.912;2023-02-15T05:10:31;100575.38;;;1.32;100.00
66627;BME280;53498;50.422;14.912;2023-02-15T05:12:56;100570.53;;;1.37;100.00
66627;BME280;53498;50.422;14.912;2023-02-15T05:15:22;100576.03;;;1.43;100.00
66627;BME280;53498;50.422;14.912;2023-02-15T05:17:48;100576.88;;;1.29;100.00
66627;BME280;53498;50.422;14.912;2023-02-15T05:20:13;100579.63;;;1.32;100.00
66627;BME280;53498;50.422;14.912;2023-02-15T05:22:39;100578.03;;;1.34;100.00
66627;BME280;53498;50.422;14.912;2023-02-15T05:25:07;100576.97;;;1.30;100.00
66627;BME280;53498;50.422;14.912;2023-02-15T05:27:52;100579.81;;;1.35;99.94
66627;BME280;53498;50.422;14.912;2023-02-15T05:30:37;100576.03;;;1.43;98.72
66627;BME280;53498;50.422;14.912;2023-02-15T05:33:05;100575.38;;;1.32;99.31
66627;BME280;53498;50.422;14.912;2023-02-15T05:35:32;100567.25;;;1.39;100.00
66627;BME280;53498;50.422;14.912;2023-02-15T05:37:58;100570.25;;;1.32;99.95
66627;BME280;53498;50.422;14.912;2023-02-15T05:40:23;100576.41;;;1.21;100.00
66627;BME280;53498;50.422;14.912;2023-02-15T05:42:49;100571.97;;;1.19;100.00
66627;BME280;53498;50.422;14.912;2023-02-15T05:45:14;100580.44;;;1.18;100.00
66627;BME280;53498;50.422;14.912;2023-02-15T05:47:41;100582.22;;;1.19;100.00
66627;BME280;53498;50.422;14.912;2023-02-15T05:50:07;100578.88;;;1.20;100.00
66627;BME280;53498;50.422;14.912;2023-02-15T05:52:33;100580.84;;;1.24;100.00
66627;BME280;53498;50.422;14.912;2023-02-15T05:54:59;100578.13;;;1.35;100.00
66627;BME280;53498;50.422;14.912;2023-02-15T05:57:26;100577.38;;;1.23;100.00
66627;BME280;53498;50.422;14.912;2023-02-15T05:59:52;100582.22;;;1.19;100.00
66627;BME280;53498;50.422;14.912;2023-02-15T06:02:17;100579.94;;;1.23;100.00
66627;BME280;53498;50.422;14.912;2023-02-15T06:04:43;100585.34;;;1.28;100.00
66627;BME280;53498;50.422;14.912;2023-02-15T06:07:09;100587.34;;;1.19;100.00
66627;BME280;53498;50.422;14.912;2023-02-15T06:09:34;100591.13;;;1.10;100.00
66627;BME280;53498;50.422;14.912;2023-02-15T06:12:00;100589.03;;;1.18;100.00
66627;BME280;53498;50.422;14.912;2023-02-15T06:14:26;100594.56;;;1.11;100.00
66627;BME280;53498;50.422;14.912;2023-02-15T06:16:51;100600.97;;;1.18;100.00
66627;BME280;53498;50.422;14.912;2023-02-15T06:19:17;100596.81;;;1.06;100.00
66627;BME280;53498;50.422;14.912;2023-02-15T06:21:43;100599.50;;;1.08;100.00
66627;BME280;53498;50.422;14.912;2023-02-15T06:24:09;100600.28;;;1.20;100.00
66627;BME280;53498;50.422;14.912;2023-02-15T06:26:34;100611.22;;;1.18;100.00
66627;BME280;53498;50.422;14.912;2023-02-15T06:29:00;100621.88;;;0.97;100.00
66627;BME280;53498;50.422;14.912;2023-02-15T06:31:25;100619.31;;;1.10;100.00
66627;BME280;53498;50.422;14.912;2023-02-15T06:33:51;100620.28;;;1.12;100.00
66627;BME280;53498;50.422;14.912;2023-02-15T06:36:16;100618.25;;;1.07;100.00
66627;BME280;53498;50.422;14.912;2023-02-15T06:38:42;100618.34;;;0.95;100.00
66627;BME280;53498;50.422;14.912;2023-02-15T06:41:08;100616.19;;;1.01;100.00
66627;BME280;53498;50.422;14.912;2023-02-15T06:43:33;100613.13;;;1.07;100.00
66627;BME280;53498;50.422;14.912;2023-02-15T06:46:00;100622.25;;;1.03;100.00
66627;BME280;53498;50.422;14.912;2023-02-15T06:48:26;100616.41;;;0.91;100.00
66627;BME280;53498;50.422;14.912;2023-02-15T06:50:51;100620.50;;;1.02;100.00
66627;BME280;53498;50.422;14.912;2023-02-15T06:53:17;100627.09;;;1.12;100.00
66627;BME280;53498;50.422;14.912;2023-02-15T06:55:43;100627.38;;;1.17;100.00
66627;BME280;53498;50.422;14.912;2023-02-15T06:58:08;100625.03;;;1.06;100.00
66627;BME280;53498;50.422;14.912;2023-02-15T07:00:34;100625.44;;;0.99;100.00
66627;BME280;53498;50.422;14.912;2023-02-15T07:02:59;100626.84;;;0.94;100.00
66627;BME280;53498;50.422;14.912;2023-02-15T07:05:26;100619.50;;;1.13;100.00
66627;BME280;53498;50.422;14.912;2023-02-15T07:07:57;100625.81;;;1.05;100.00
66627;BME280;53498;50.422;14.912;2023-02-15T07:10:29;100625.13;;;1.08;100.00
66627;BME280;53498;50.422;14.912;2023-02-15T07:12:55;100628.59;;;0.95;100.00
66627;BME280;53498;50.422;14.912;2023-02-15T07:15:21;100629.75;;;1.00;100.00
66627;BME280;53498;50.422;14.912;2023-02-15T07:17:47;100632.50;;;1.03;100.00
66627;BME280;53498;50.422;14.912;2023-02-15T07:20:19;100636.31;;;0.82;100.00
66627;BME280;53498;50.422;14.912;2023-02-15T07:22:45;100634.13;;;0.88;100.00
66627;BME280;53498;50.422;14.912;2023-02-15T07:25:11;100631.06;;;0.93;100.00
66627;BME280;53498;50.422;14.912;2023-02-15T07:27:38;100621.00;;;0.97;100.00
66627;BME280;53498;50.422;14.912;2023-02-15T07:30:05;100619.31;;;0.97;100.00
66627;BME280;53498;50.422;14.912;2023-02-15T07:32:32;100618.34;;;0.95;100.00
66627;BME280;53498;50.422;14.912;2023-02-15T07:34:58;100605.81;;;1.00;100.00
66627;BME280;53498;50.422;14.912;2023-02-15T07:37:25;100604.28;;;0.88;100.00
66627;BME280;53498;50.422;14.912;2023-02-15T07:39:51;100608.41;;;0.86;100.00
66627;BME280;53498;50.422;14.912;2023-02-15T07:42:17;100611.94;;;0.75;100.00
66627;BME280;53498;50.422;14.912;2023-02-15T07:44:45;100606.75;;;0.74;100.00
66627;BME280;53498;50.422;14.912;2023-02-15T07:47:10;100600.81;;;0.75;100.00
66627;BME280;53498;50.422;14.912;2023-02-15T07:49:37;100600.44;;;0.82;100.00
66627;BME280;53498;50.422;14.912;2023-02-15T07:52:03;100600.84;;;0.88;100.00
66627;BME280;53498;50.422;14.912;2023-02-15T07:54:29;100593.03;;;0.86;100.00
66627;BME280;53498;50.422;14.912;2023-02-15T07:56:55;100593.03;;;0.86;100.00
66627;BME280;53498;50.422;14.912;2023-02-15T07:59:22;100599.44;;;0.80;100.00
66627;BME280;53498;50.422;14.912;2023-02-15T08:01:47;100586.41;;;0.90;100.00
66627;BME280;53498;50.422;14.912;2023-02-15T08:04:13;100589.00;;;0.77;100.00
66627;BME280;53498;50.422;14.912;2023-02-15T08:06:38;100588.78;;;0.87;100.00
66627;BME280;53498;50.422;14.912;2023-02-15T08:09:07;100595.59;;;0.86;100.00
66627;BME280;53498;50.422;14.912;2023-02-15T08:11:36;100590.97;;;0.94;100.00
66627;BME280;53498;50.422;14.912;2023-02-15T08:14:11;100587.50;;;1.07;100.00
66627;BME280;53498;50.422;14.912;2023-02-15T08:16:45;100580.25;;;1.14;100.00
66627;BME280;53498;50.422;14.912;2023-02-15T08:19:22;100588.28;;;0.92;100.00
66627;BME280;53498;50.422;14.912;2023-02-15T08:21:55;100587.78;;;0.98;100.00
66627;BME280;53498;50.422;14.912;2023-02-15T08:24:26;100586.41;;;0.90;100.00
66627;BME280;53498;50.422;14.912;2023-02-15T08:26:52;100579.84;;;0.67;100.00
66627;BME280;53498;50.422;14.912;2023-02-15T08:29:23;100577.69;;;0.73;100.00
66627;BME280;53498;50.422;14.912;2023-02-15T08:31:52;100580.06;;;0.70;100.00
66627;BME280;53498;50.422;14.912;2023-02-15T08:34:19;100578.94;;;0.93;100.00
66627;BME280;53498;50.422;14.912;2023-02-15T08:36:45;100586.03;;;0.84;100.00
66627;BME280;53498;50.422;14.912;2023-02-15T08:39:12;100584.44;;;0.99;100.00
66627;BME280;53498;50.422;14.912;2023-02-15T08:41:45;100575.94;;;1.00;100.00
66627;BME280;53498;50.422;14.912;2023-02-15T08:44:11;100582.88;;;1.01;99.88
66627;BME280;53498;50.422;14.912;2023-02-15T08:46:40;100580.00;;;1.10;100.00
66627;BME280;53498;50.422;14.912;2023-02-15T08:49:07;100579.56;;;1.17;100.00
66627;BME280;53498;50.422;14.912;2023-02-15T08:51:35;100584.38;;;1.26;99.67
66627;BME280;53498;50.422;14.912;2023-02-15T08:54:04;100581.88;;;0.99;100.00
66627;BME280;53498;50.422;14.912;2023-02-15T08:56:33;100585.75;;;0.79;100.00
66627;BME280;53498;50.422;14.912;2023-02-15T08:59:00;100574.88;;;0.97;100.00
66627;BME280;53498;50.422;14.912;2023-02-15T09:01:28;100576.28;;;0.91;100.00
66627;BME280;53498;50.422;14.912;2023-02-15T09:04:05;100572.31;;;0.97;100.00
66627;BME280;53498;50.422;14.912;2023-02-15T09:06:34;100573.63;;;0.90;100.00
66627;BME280;53498;50.422;14.912;2023-02-15T09:09:00;100571.19;;;1.06;100.00
66627;BME280;53498;50.422;14.912;2023-02-15T09:11:32;100569.38;;;0.90;100.00
66627;BME280;53498;50.422;14.912;2023-02-15T09:13:59;100561.72;;;1.19;100.00
66627;BME280;53498;50.422;14.912;2023-02-15T09:16:27;100566.66;;;1.15;99.91
66627;BME280;53498;50.422;14.912;2023-02-15T09:18:53;100564.16;;;1.30;100.00
66627;BME280;53498;50.422;14.912;2023-02-15T09:21:22;100558.69;;;1.11;100.00
66627;BME280;53498;50.422;14.912;2023-02-15T09:23:49;100559.88;;;1.16;100.00
66627;BME280;53498;50.422;14.912;2023-02-15T09:26:17;100558.00;;;1.00;100.00
66627;BME280;53498;50.422;14.912;2023-02-15T09:28:43;100557.44;;;1.04;100.00
66627;BME280;53498;50.422;14.912;2023-02-15T09:31:17;100552.63;;;0.96;100.00
66627;BME280;53498;50.422;14.912;2023-02-15T09:33:45;100565.31;;;1.07;100.00
66627;BME280;53498;50.422;14.912;2023-02-15T09:36:18;100557.13;;;1.13;100.00
66627;BME280;53498;50.422;14.912;2023-02-15T09:38:45;100553.84;;;1.15;100.00
66627;BME280;53498;50.422;14.912;2023-02-15T09:41:32;100559.69;;;1.00;100.00
66627;BME280;53498;50.422;14.912;2023-02-15T09:55:43;100560.06;;;1.06;99.75
66627;BME280;53498;50.422;14.912;2023-02-15T10:01:06;100552.13;;;1.01;100.00
66627;BME280;53498;50.422;14.912;2023-02-15T10:03:47;100554.81;;;1.18;100.00
66627;BME280;53498;50.422;14.912;2023-02-15T10:09:31;100560.06;;;1.06;100.00
66627;BME280;53498;50.422;14.912;2023-02-15T10:20:33;100560.75;;;1.17;100.00
66627;BME280;53498;50.422;14.912;2023-02-15T10:23:23;100546.56;;;1.08;100.00
66627;BME280;53498;50.422;14.912;2023-02-15T10:26:16;100548.88;;;1.04;100.00
66627;BME280;53498;50.422;14.912;2023-02-15T10:28:51;100552.81;;;0.99;100.00
66627;BME280;53498;50.422;14.912;2023-02-15T10:34:20;100544.66;;;0.91;100.00
66627;BME280;53498;50.422;14.912;2023-02-15T10:37:09;100548.44;;;1.11;100.00
66627;BME280;53498;50.422;14.912;2023-02-15T10:48:05;100541.50;;;0.95;100.00
66627;BME280;53498;50.422;14.912;2023-02-15T10:51:08;100531.50;;;1.28;100.00
